Lincoln Hwy 8

*Note: All times are displayed in the local standard time of the station location.
**Rain - Equipment is designed to accurately record liquid precipitation; under conditions when precipitation is not in liquid form, the data displayed may not properly reflect rainfall values.

Date Max Temp
(°C)
Min Temp
(°C)
Avg Temp
(°C)
Rain (mm) Avg RH (%)
Fri, Dec 14, 2018 6.8 1.5 4.0 2.4 86.8
Thu, Dec 13, 2018 5.0 -1.3 1.2 0.4 94.2
Wed, Dec 12, 2018 2.0 -4.4 -0.7 0.0 86.1
Tue, Dec 11, 2018 -0.3 -2.4 -1.0 0.0 82.2
Mon, Dec 10, 2018 1.1 -2.0 -0.5 0.0 80.6
Sun, Dec 09, 2018 0.8 -6.9 -2.8 0.0 74.0
Sat, Dec 08, 2018 0.1 -6.1 -3.0 0.0 74.9
DateTime Avg Temp (°C) Rain (mm) RH (%)
Sat, Dec 15, 2018 17:00 3.2 0.0 88.9
Sat, Dec 15, 2018 16:00 3.4 0.0 87.3
Sat, Dec 15, 2018 15:00 3.5 0.0 87.5
Sat, Dec 15, 2018 14:00 3.8 0.0 86.0
Sat, Dec 15, 2018 13:00 4.1 0.0 86.7
Sat, Dec 15, 2018 12:00 3.6 0.0 88.8
Sat, Dec 15, 2018 11:00 3.1 0.0 91.9
Sat, Dec 15, 2018 10:00 2.5 0.0 94.4
Sat, Dec 15, 2018 09:00 1.5 0.0 99.2
Sat, Dec 15, 2018 08:00 1.4 0.0 99.4
Sat, Dec 15, 2018 07:00 1.3 0.0 98.3
Sat, Dec 15, 2018 06:00 1.4 0.0 97.8
Sat, Dec 15, 2018 05:00 1.1 0.0 97.2
Sat, Dec 15, 2018 04:00 1.2 0.0 97.3
Sat, Dec 15, 2018 03:00 2.1 0.0 96.5
Sat, Dec 15, 2018 02:00 2.3 0.0 96.0
Sat, Dec 15, 2018 01:00 2.9 0.0 93.1
Sat, Dec 15, 2018 00:00 4.4 0.0 88.8
Fri, Dec 14, 2018 23:00 5.1 0.0 85.4
Fri, Dec 14, 2018 22:00 4.9 0.0 84.5
Fri, Dec 14, 2018 21:00 5.1 0.0 83.1
Fri, Dec 14, 2018 20:00 4.1 0.0 88.7
Fri, Dec 14, 2018 19:00 3.5 0.0 89.9
Fri, Dec 14, 2018 18:00 3.5 0.0 84.4
Fri, Dec 14, 2018 17:00 5.9 0.0 76.0
Fri, Dec 14, 2018 16:00 6.4 0.0 77.6
Fri, Dec 14, 2018 15:00 5.8 0.0 83.2
Fri, Dec 14, 2018 14:00 5.4 0.0 87.5
Fri, Dec 14, 2018 13:00 5.0 0.0 91.8
Fri, Dec 14, 2018 12:00 4.5 0.2 92.8
Fri, Dec 14, 2018 11:00 4.0 1.2 92.6
Fri, Dec 14, 2018 10:00 4.0 1.0 89.7
Fri, Dec 14, 2018 09:00 4.1 0.0 84.7
Fri, Dec 14, 2018 08:00 3.8 0.0 84.7
Fri, Dec 14, 2018 07:00 3.4 0.0 85.5
Fri, Dec 14, 2018 06:00 3.0 0.0 86.4
Fri, Dec 14, 2018 05:00 2.9 0.0 85.5
Fri, Dec 14, 2018 04:00 2.5 0.0 86.5
Fri, Dec 14, 2018 03:00 1.8 0.0 91.4
Fri, Dec 14, 2018 02:00 1.7 0.0 92.7
Fri, Dec 14, 2018 01:00 1.6 0.0 90.8
Fri, Dec 14, 2018 00:00 1.5 0.0 89.6
Thu, Dec 13, 2018 23:00 1.9 0.0 87.5
Thu, Dec 13, 2018 22:00 2.3 0.0 86.0
Thu, Dec 13, 2018 21:00 1.0 0.0 95.2
Thu, Dec 13, 2018 20:00 -0.2 0.0 97.1
Thu, Dec 13, 2018 19:00 1.3 0.0 96.1
Thu, Dec 13, 2018 18:00 1.9 0.0 94.3


asterix Register now to access more data! asterix